Time;durP1;ratioP1;P1;durP2;ratioP2;P2;SDS_P1;SDS_P2;PMS_P1;PMS_P2;Temp;Humidity;BMP_temperature;BMP_pressure;BME280_temperature;BME280_humidity;BME280_pressure;Samples;Min_cycle;Max_cycle;Signal;HPM_P1;HPM_P2
2022/01/09 00:01:36;;;;;;;16.45;11.52;;;5.50;99.90;;;;;;5110387;28;20075;-79
2022/01/09 00:04:02;;;;;;;22.08;13.30;;;5.50;99.90;;;;;;5112339;28;20152;-80
2022/01/09 00:06:28;;;;;;;27.80;14.15;;;5.50;99.90;;;;;;5091687;28;20079;-81
2022/01/09 00:08:54;;;;;;;21.00;12.65;;;5.40;99.90;;;;;;5108728;28;20088;-80
2022/01/09 00:11:26;;;;;;;22.58;12.43;;;5.40;99.90;;;;;;5110534;28;20077;-81
2022/01/09 00:13:53;;;;;;;21.48;13.23;;;5.40;99.90;;;;;;5074693;28;20450;-80
2022/01/09 00:16:20;;;;;;;16.67;10.70;;;5.50;99.90;;;;;;5092639;28;20048;-79
2022/01/09 00:18:47;;;;;;;18.58;10.90;;;5.50;99.90;;;;;;5090295;28;20043;-80
2022/01/09 00:21:13;;;;;;;15.88;11.05;;;5.50;99.90;;;;;;5096152;28;20096;-80
2022/01/09 00:23:38;;;;;;;18.80;8.95;;;5.50;99.90;;;;;;5095852;28;20058;-80
2022/01/09 00:26:06;;;;;;;18.15;8.25;;;5.50;99.90;;;;;;5079350;28;20043;-81
2022/01/09 00:28:32;;;;;;;15.15;5.85;;;5.50;99.90;;;;;;5095590;28;20048;-79
2022/01/09 00:30:58;;;;;;;27.33;5.60;;;5.60;99.90;;;;;;5078975;28;20040;-79
2022/01/09 00:33:24;;;;;;;25.55;4.22;;;5.70;99.90;;;;;;5095920;27;20050;-79
2022/01/09 00:35:50;;;;;;;28.77;4.38;;;5.70;99.90;;;;;;5097700;27;20039;-80
2022/01/09 00:38:16;;;;;;;30.00;3.67;;;5.80;99.90;;;;;;5099129;27;20053;-80
2022/01/09 00:40:42;;;;;;;37.20;4.53;;;5.70;99.90;;;;;;5108247;28;20601;-80
2022/01/09 00:43:09;;;;;;;37.05;4.18;;;5.70;99.90;;;;;;5079062;28;20059;-80
2022/01/09 00:45:40;;;;;;;33.10;4.15;;;5.80;99.90;;;;;;5095838;28;20070;-82
2022/01/09 00:48:06;;;;;;;32.95;3.80;;;5.80;99.90;;;;;;5095771;28;20044;-80
2022/01/09 00:50:33;;;;;;;35.00;5.35;;;5.70;99.90;;;;;;5095577;28;20066;-80
2022/01/09 00:52:59;;;;;;;42.53;6.35;;;5.80;99.90;;;;;;5078993;28;20043;-80
2022/01/09 00:55:25;;;;;;;41.90;6.03;;;5.70;99.90;;;;;;5078490;28;20047;-82
2022/01/09 00:57:51;;;;;;;35.85;4.78;;;5.80;99.90;;;;;;5095753;28;20050;-80
2022/01/09 01:00:17;;;;;;;48.13;6.32;;;5.80;99.90;;;;;;5079032;28;20054;-80
2022/01/09 01:02:43;;;;;;;45.17;7.13;;;5.80;99.90;;;;;;5078665;28;20054;-81
2022/01/09 01:05:09;;;;;;;53.20;6.18;;;5.80;99.90;;;;;;5094991;28;20039;-80
2022/01/09 01:07:35;;;;;;;57.10;7.18;;;5.80;99.90;;;;;;5095426;28;20039;-80
2022/01/09 01:10:01;;;;;;;56.55;6.97;;;5.80;99.90;;;;;;5074738;28;20067;-80
2022/01/09 01:12:29;;;;;;;51.38;6.45;;;5.80;99.90;;;;;;5065645;28;20101;-80
2022/01/09 01:14:55;;;;;;;50.50;7.05;;;5.80;99.90;;;;;;5095472;28;20086;-80
2022/01/09 01:17:22;;;;;;;59.38;6.45;;;5.90;99.90;;;;;;5095259;28;20043;-80
2022/01/09 01:19:48;;;;;;;65.35;6.70;;;5.90;99.90;;;;;;5095052;28;20047;-79
2022/01/09 01:22:15;;;;;;;61.22;7.05;;;6.00;99.90;;;;;;5095368;28;20050;-80
2022/01/09 01:24:41;;;;;;;48.33;7.40;;;6.00;99.90;;;;;;5078510;28;20044;-80
2022/01/09 01:27:08;;;;;;;51.22;6.88;;;5.90;99.90;;;;;;5061892;28;20074;-81
2022/01/09 01:29:35;;;;;;;64.32;8.32;;;6.10;99.90;;;;;;5078290;28;20503;-81
2022/01/09 01:32:01;;;;;;;58.13;7.35;;;6.10;99.90;;;;;;5095209;28;20047;-81
2022/01/09 01:34:27;;;;;;;64.90;8.48;;;6.20;99.90;;;;;;5095024;28;20054;-80
2022/01/09 01:36:53;;;;;;;52.75;7.10;;;6.10;99.90;;;;;;5065827;28;20044;-80
2022/01/09 01:39:18;;;;;;;55.78;6.53;;;6.20;99.90;;;;;;5099024;28;20121;-81
2022/01/09 01:41:44;;;;;;;51.40;6.57;;;6.20;99.90;;;;;;5088498;27;20062;-80
2022/01/09 01:44:11;;;;;;;52.88;6.15;;;6.20;99.90;;;;;;5119173;27;20051;-80
2022/01/09 01:46:38;;;;;;;53.13;6.10;;;6.10;99.90;;;;;;5136508;27;20482;-80
2022/01/09 01:49:04;;;;;;;57.25;7.88;;;6.20;99.90;;;;;;5102338;27;20043;-80
2022/01/09 01:51:30;;;;;;;41.75;5.25;;;6.10;99.90;;;;;;5102158;27;20488;-80
2022/01/09 01:53:57;;;;;;;43.28;6.75;;;6.10;99.90;;;;;;5102973;27;20514;-80
2022/01/09 01:56:23;;;;;;;54.35;7.13;;;6.10;99.90;;;;;;5122880;27;20047;-81
2022/01/09 01:58:50;;;;;;;42.30;6.13;;;6.10;99.90;;;;;;5122707;27;20061;-81
2022/01/09 02:01:16;;;;;;;62.65;7.80;;;6.20;99.90;;;;;;5122129;27;20035;-82
2022/01/09 02:03:43;;;;;;;63.65;7.72;;;6.30;99.90;;;;;;5122477;27;20057;-81
2022/01/09 02:06:08;;;;;;;58.55;8.10;;;6.30;99.90;;;;;;5139237;27;20046;-82
2022/01/09 02:08:34;;;;;;;56.40;7.65;;;6.50;99.90;;;;;;5119891;27;20084;-80
2022/01/09 02:11:00;;;;;;;49.28;7.72;;;6.40;99.90;;;;;;5138983;27;20050;-79
2022/01/09 02:13:26;;;;;;;57.55;8.88;;;6.50;99.90;;;;;;5101491;27;20077;-82
2022/01/09 02:15:57;;;;;;;63.35;7.82;;;6.60;99.90;;;;;;5085965;27;20051;-82
2022/01/09 02:18:22;;;;;;;48.13;7.28;;;6.60;99.90;;;;;;5122350;27;20046;-82
2022/01/09 02:20:50;;;;;;;60.70;8.60;;;6.60;99.90;;;;;;5139044;27;20038;-81
2022/01/09 02:23:17;;;;;;;61.17;7.72;;;6.60;99.90;;;;;;5122654;27;20439;-80
2022/01/09 02:25:44;;;;;;;56.08;7.68;;;6.60;99.90;;;;;;5122285;27;20113;-80
2022/01/09 02:28:12;;;;;;;62.55;8.43;;;6.70;99.90;;;;;;5122497;27;20050;-80
2022/01/09 02:30:38;;;;;;;51.20;7.00;;;6.60;99.90;;;;;;5139641;27;20054;-80
2022/01/09 02:33:06;;;;;;;49.05;7.68;;;6.60;99.90;;;;;;5122217;27;20080;-79
2022/01/09 02:35:33;;;;;;;46.97;6.65;;;6.60;99.90;;;;;;5139264;27;20054;-80
2022/01/09 02:37:59;;;;;;;57.42;7.35;;;6.60;99.90;;;;;;5121971;27;20047;-80
2022/01/09 02:40:25;;;;;;;42.65;6.63;;;6.70;99.90;;;;;;5117656;27;20077;-79
2022/01/09 02:42:53;;;;;;;44.30;6.32;;;6.70;99.90;;;;;;5101150;27;20510;-80
2022/01/09 02:45:21;;;;;;;49.05;6.80;;;6.70;99.90;;;;;;5121646;27;20070;-79
2022/01/09 02:47:48;;;;;;;60.63;8.02;;;6.70;99.90;;;;;;5138311;27;20130;-80
2022/01/09 02:50:31;;;;;;;49.65;7.15;;;6.70;99.90;;;;;;5138822;27;20046;-79
2022/01/09 02:53:12;;;;;;;39.63;5.90;;;6.70;99.90;;;;;;5121636;27;20042;-79
2022/01/09 02:55:38;;;;;;;53.25;7.30;;;6.70;99.90;;;;;;5104657;27;20051;-79
2022/01/09 02:58:03;;;;;;;45.78;6.03;;;6.70;99.90;;;;;;5083912;27;20062;-79
2022/01/09 03:00:32;;;;;;;49.15;6.63;;;6.70;99.90;;;;;;5091779;27;20066;-80
2022/01/09 03:02:58;;;;;;;45.47;7.47;;;6.70;99.90;;;;;;5121166;27;20078;-79
2022/01/09 03:05:26;;;;;;;54.28;6.93;;;6.70;99.90;;;;;;5121672;27;20130;-79
2022/01/09 03:07:52;;;;;;;47.60;6.78;;;6.70;99.90;;;;;;5138405;27;20053;-79
2022/01/09 03:10:19;;;;;;;42.17;6.18;;;6.70;99.90;;;;;;5138728;27;20134;-79
2022/01/09 03:12:47;;;;;;;37.85;6.10;;;6.60;99.90;;;;;;5138472;27;20479;-80
2022/01/09 03:15:14;;;;;;;41.83;5.63;;;6.60;99.90;;;;;;5104726;27;20379;-79
2022/01/09 03:17:40;;;;;;;42.92;5.45;;;6.60;99.90;;;;;;5137902;27;20041;-82
2022/01/09 03:20:09;;;;;;;42.10;5.68;;;6.70;99.90;;;;;;5099932;27;20043;-81
2022/01/09 03:22:35;;;;;;;52.55;7.47;;;6.70;99.90;;;;;;5134967;27;20082;-90
2022/01/09 03:25:01;;;;;;;41.63;4.80;;;6.60;99.90;;;;;;5120081;27;20045;-83
2022/01/09 03:27:27;;;;;;;45.50;5.97;;;6.70;99.90;;;;;;5120733;27;20035;-84
2022/01/09 03:29:53;;;;;;;50.72;6.30;;;6.70;99.90;;;;;;5138025;27;20091;-80
2022/01/09 03:32:18;;;;;;;46.97;5.90;;;6.60;99.90;;;;;;5104177;27;20039;-80
2022/01/09 03:34:44;;;;;;;32.78;4.90;;;6.60;99.90;;;;;;5117462;27;20042;-79
2022/01/09 03:37:10;;;;;;;40.72;7.20;;;6.60;99.90;;;;;;5117264;27;20052;-80
2022/01/09 03:39:35;;;;;;;42.58;5.28;;;6.60;99.90;;;;;;5085499;27;20054;-80
2022/01/09 03:42:01;;;;;;;38.53;5.57;;;6.60;99.90;;;;;;5095103;28;20055;-81
2022/01/09 03:44:27;;;;;;;40.50;4.50;;;6.60;99.90;;;;;;5088940;27;20050;-80
2022/01/09 03:46:55;;;;;;;27.88;4.95;;;6.60;99.90;;;;;;5117187;27;20046;-79
2022/01/09 03:49:21;;;;;;;34.17;5.20;;;6.60;99.90;;;;;;5117538;27;20148;-80
2022/01/09 03:51:50;;;;;;;34.03;5.03;;;6.60;99.90;;;;;;5088857;28;20056;-80
2022/01/09 03:54:17;;;;;;;42.78;5.97;;;6.50;99.90;;;;;;5108996;27;20117;-80
2022/01/09 03:56:43;;;;;;;39.17;4.95;;;6.50;99.90;;;;;;5116209;27;20079;-83
2022/01/09 03:59:09;;;;;;;34.30;4.45;;;6.50;99.90;;;;;;5133679;27;20491;-80
2022/01/09 04:01:35;;;;;;;32.60;5.65;;;6.50;99.90;;;;;;5096124;28;20487;-83
2022/01/09 04:04:01;;;;;;;33.25;4.90;;;6.50;99.90;;;;;;5112365;28;20048;-85
2022/01/09 04:06:26;;;;;;;38.85;5.75;;;6.40;99.90;;;;;;5109716;27;20479;-83
2022/01/09 04:08:52;;;;;;;33.05;5.05;;;6.50;99.90;;;;;;5133590;27;20100;-83
2022/01/09 04:11:27;;;;;;;30.42;5.22;;;6.40;99.90;;;;;;5133905;27;20055;-81
2022/01/09 04:13:53;;;;;;;30.25;5.43;;;6.40;99.90;;;;;;5097227;28;20050;-82
2022/01/09 04:16:19;;;;;;;25.45;4.20;;;6.40;99.90;;;;;;5113359;28;20404;-81
2022/01/09 04:18:45;;;;;;;38.10;4.97;;;6.40;99.90;;;;;;5107434;27;20129;-82
2022/01/09 04:21:11;;;;;;;33.42;6.07;;;6.40;99.90;;;;;;5099803;27;20476;-80
2022/01/09 04:23:36;;;;;;;37.58;4.88;;;6.30;99.90;;;;;;5116078;27;20035;-81
2022/01/09 04:26:02;;;;;;;32.35;4.63;;;6.30;99.90;;;;;;5099439;27;20398;-82
2022/01/09 04:28:28;;;;;;;37.42;4.78;;;6.40;99.90;;;;;;5133822;27;20035;-82
2022/01/09 04:30:53;;;;;;;42.20;5.47;;;6.30;99.90;;;;;;5115690;27;20046;-82
2022/01/09 04:33:19;;;;;;;39.65;5.53;;;6.30;99.90;;;;;;5113790;28;20181;-80
2022/01/09 04:35:45;;;;;;;34.47;5.45;;;6.20;99.90;;;;;;5099205;27;20043;-81
2022/01/09 04:38:11;;;;;;;25.35;4.10;;;6.20;99.90;;;;;;5116013;27;20126;-83
2022/01/09 04:40:37;;;;;;;31.17;6.03;;;6.30;99.90;;;;;;5132909;27;20035;-82
2022/01/09 04:43:06;;;;;;;35.67;4.45;;;6.20;99.90;;;;;;5096383;27;20055;-83
2022/01/09 04:45:32;;;;;;;31.30;4.55;;;6.20;99.90;;;;;;5112390;28;20506;-83
2022/01/09 04:48:02;;;;;;;33.80;4.82;;;6.20;99.90;;;;;;5078846;28;20048;-83
2022/01/09 04:50:31;;;;;;;43.75;5.45;;;6.20;99.90;;;;;;5124206;27;20120;-80
2022/01/09 04:53:01;;;;;;;31.38;5.25;;;6.20;99.90;;;;;;5132968;27;20133;-82
2022/01/09 04:55:28;;;;;;;23.88;4.07;;;6.20;99.90;;;;;;5133153;27;20506;-80
2022/01/09 04:57:54;;;;;;;36.72;5.65;;;6.20;99.90;;;;;;5112556;28;20074;-79
2022/01/09 05:00:20;;;;;;;39.38;6.65;;;6.20;99.90;;;;;;5112118;28;20039;-80
2022/01/09 05:02:46;;;;;;;26.92;3.92;;;6.20;99.90;;;;;;5120317;27;20628;-85
2022/01/09 05:05:12;;;;;;;42.92;6.68;;;6.10;99.90;;;;;;5097083;27;20130;-81
2022/01/09 05:07:38;;;;;;;36.53;5.40;;;6.20;99.90;;;;;;5133012;27;20074;-80
2022/01/09 05:10:06;;;;;;;29.77;5.10;;;6.10;99.90;;;;;;5114885;27;20045;-80
2022/01/09 05:12:33;;;;;;;30.92;4.53;;;6.10;99.90;;;;;;5112479;28;20055;-80
2022/01/09 05:14:58;;;;;;;25.95;4.03;;;6.10;99.90;;;;;;5080017;28;20051;-80
2022/01/09 05:17:24;;;;;;;23.35;3.47;;;6.00;99.90;;;;;;5095215;28;20050;-80
2022/01/09 05:19:57;;;;;;;27.30;3.75;;;6.10;99.90;;;;;;5094371;28;20077;-80
2022/01/09 05:22:27;;;;;;;28.95;4.15;;;6.00;99.90;;;;;;5094949;28;20142;-79
2022/01/09 05:24:54;;;;;;;31.13;4.47;;;6.10;99.90;;;;;;5078810;28;20499;-80
2022/01/09 05:27:21;;;;;;;30.02;3.75;;;6.10;99.90;;;;;;5131944;28;20103;-79
2022/01/09 05:29:46;;;;;;;24.60;3.72;;;6.10;99.90;;;;;;5098634;28;20054;-80
2022/01/09 05:32:12;;;;;;;21.50;3.67;;;6.10;99.90;;;;;;5081873;28;20130;-82
2022/01/09 05:34:38;;;;;;;14.15;2.72;;;6.10;99.90;;;;;;5115803;28;20494;-80
2022/01/09 05:37:04;;;;;;;25.95;3.40;;;6.00;99.90;;;;;;5115396;28;20047;-80
2022/01/09 05:39:31;;;;;;;27.35;3.60;;;6.10;99.90;;;;;;5115440;28;20437;-80
2022/01/09 05:41:58;;;;;;;23.63;3.60;;;6.00;99.90;;;;;;5132016;28;20112;-79
2022/01/09 05:44:24;;;;;;;28.95;3.78;;;6.10;99.90;;;;;;5115477;28;20441;-81
2022/01/09 05:46:50;;;;;;;26.98;3.42;;;6.10;99.90;;;;;;5115427;28;20075;-80
2022/01/09 05:49:16;;;;;;;21.15;3.63;;;6.10;99.90;;;;;;5132411;28;20118;-80
2022/01/09 05:51:41;;;;;;;27.83;4.00;;;6.10;99.90;;;;;;5132445;28;20047;-79
2022/01/09 05:54:08;;;;;;;18.67;2.88;;;6.00;99.90;;;;;;5098493;28;20043;-79
2022/01/09 05:56:33;;;;;;;27.35;4.40;;;6.00;99.90;;;;;;5115402;28;20046;-81
2022/01/09 05:59:00;;;;;;;33.03;5.13;;;6.00;99.90;;;;;;5114459;28;20485;-80
2022/01/09 06:01:25;;;;;;;25.33;3.53;;;6.00;99.90;;;;;;5098323;28;20047;-79
2022/01/09 06:03:51;;;;;;;30.80;4.03;;;6.00;99.90;;;;;;5132040;28;20054;-80
2022/01/09 06:06:17;;;;;;;26.52;4.07;;;6.00;99.90;;;;;;5114223;28;20057;-80
2022/01/09 06:08:42;;;;;;;30.42;3.95;;;6.00;99.90;;;;;;5114405;28;20065;-80
2022/01/09 06:11:08;;;;;;;31.02;4.30;;;6.00;99.90;;;;;;5114680;28;20051;-80
2022/01/09 06:13:34;;;;;;;29.35;5.35;;;5.90;99.90;;;;;;5098330;28;20135;-82
2022/01/09 06:15:59;;;;;;;24.73;3.85;;;5.90;99.90;;;;;;5132075;28;20043;-81
2022/01/09 06:18:26;;;;;;;22.13;4.00;;;5.90;99.90;;;;;;5093277;28;20054;-81
2022/01/09 06:20:51;;;;;;;31.23;3.85;;;5.90;99.90;;;;;;5130938;27;20463;-81
2022/01/09 06:23:20;;;;;;;23.05;3.80;;;5.90;99.90;;;;;;5135793;27;20126;-80
2022/01/09 06:25:49;;;;;;;27.20;3.65;;;5.90;99.90;;;;;;5115962;27;20055;-81
2022/01/09 06:28:15;;;;;;;30.38;3.95;;;5.80;99.90;;;;;;5098075;28;20900;-80
2022/01/09 06:30:42;;;;;;;28.52;3.60;;;5.80;99.90;;;;;;5122791;27;20184;-80
2022/01/09 06:33:08;;;;;;;30.90;4.38;;;5.80;99.90;;;;;;5118425;27;20636;-79
2022/01/09 06:35:34;;;;;;;20.63;3.65;;;5.90;99.90;;;;;;5135581;27;20093;-80
2022/01/09 06:38:00;;;;;;;29.80;3.92;;;5.80;99.90;;;;;;5117195;27;20119;-80
2022/01/09 06:40:26;;;;;;;27.02;4.03;;;5.80;99.90;;;;;;5114308;27;20039;-80
2022/01/09 06:42:51;;;;;;;21.80;4.05;;;5.80;99.90;;;;;;5100577;27;20059;-80
2022/01/09 06:45:17;;;;;;;18.73;3.75;;;5.80;99.90;;;;;;5083081;27;20038;-80
2022/01/09 06:47:43;;;;;;;25.63;4.63;;;5.80;99.90;;;;;;5135275;27;20043;-82
2022/01/09 06:50:10;;;;;;;29.77;4.97;;;5.70;99.90;;;;;;5099766;27;20072;-81
2022/01/09 06:52:37;;;;;;;24.48;3.53;;;5.70;99.90;;;;;;5116707;27;20483;-81
2022/01/09 06:55:03;;;;;;;19.55;3.00;;;5.60;99.90;;;;;;5117186;27;20622;-80
2022/01/09 06:57:29;;;;;;;27.67;3.92;;;5.60;99.90;;;;;;5134272;27;20395;-81
2022/01/09 06:59:55;;;;;;;27.15;4.20;;;5.50;99.90;;;;;;5099072;27;20043;-83
2022/01/09 07:02:21;;;;;;;30.80;5.07;;;5.50;99.90;;;;;;5116064;27;20553;-81
2022/01/09 07:04:46;;;;;;;20.27;3.72;;;5.40;99.90;;;;;;5116480;27;20054;-82
2022/01/09 07:07:12;;;;;;;29.00;4.90;;;5.40;99.90;;;;;;5116955;27;20050;-80
2022/01/09 07:09:38;;;;;;;28.27;3.97;;;5.40;99.90;;;;;;5083969;27;20039;-81
2022/01/09 07:12:05;;;;;;;28.77;3.38;;;5.20;99.90;;;;;;5117178;27;20043;-82
2022/01/09 07:14:31;;;;;;;33.70;4.22;;;5.20;99.90;;;;;;5133484;27;20039;-82
2022/01/09 07:16:57;;;;;;;20.38;3.75;;;5.20;99.90;;;;;;5097601;27;20035;-81
2022/01/09 07:19:22;;;;;;;28.08;3.50;;;5.20;99.90;;;;;;5100127;27;20100;-82
2022/01/09 07:21:48;;;;;;;22.75;4.07;;;5.20;99.90;;;;;;5117547;27;20369;-82
2022/01/09 07:24:14;;;;;;;23.00;3.42;;;5.20;99.90;;;;;;5100504;27;20043;-82
2022/01/09 07:26:39;;;;;;;28.10;3.97;;;5.30;99.90;;;;;;5114271;28;20097;-80
2022/01/09 07:29:05;;;;;;;23.35;3.63;;;5.40;99.90;;;;;;5087231;27;20046;-82
2022/01/09 07:31:31;;;;;;;17.77;3.30;;;5.40;99.90;;;;;;5096984;28;20073;-80
2022/01/09 07:33:56;;;;;;;23.45;2.97;;;5.40;99.90;;;;;;5076727;27;20050;-80
2022/01/09 07:36:22;;;;;;;24.35;3.22;;;5.40;99.90;;;;;;5097837;27;20475;-82
2022/01/09 07:38:48;;;;;;;20.02;3.33;;;5.30;99.90;;;;;;5134695;27;20198;-81
2022/01/09 07:41:14;;;;;;;18.95;3.75;;;5.30;99.90;;;;;;5116382;27;20059;-80
2022/01/09 07:43:41;;;;;;;29.25;3.78;;;5.30;99.90;;;;;;5133247;27;20055;-80
2022/01/09 07:46:07;;;;;;;16.73;3.05;;;5.30;99.90;;;;;;5072468;28;20047;-81
2022/01/09 07:48:32;;;;;;;19.73;3.00;;;5.20;99.90;;;;;;5116717;27;20042;-80
2022/01/09 07:50:58;;;;;;;30.45;3.63;;;5.20;99.90;;;;;;5109833;28;20075;-81
2022/01/09 07:53:24;;;;;;;21.60;2.60;;;5.20;99.90;;;;;;5096730;28;20126;-80
2022/01/09 07:55:53;;;;;;;28.45;3.95;;;5.20;99.90;;;;;;5082674;27;20491;-81
2022/01/09 07:58:20;;;;;;;22.17;3.03;;;5.20;99.90;;;;;;5116511;27;20047;-80
2022/01/09 08:00:46;;;;;;;24.60;3.17;;;5.10;99.90;;;;;;5134006;27;20046;-80
2022/01/09 08:03:12;;;;;;;19.45;2.67;;;5.10;99.90;;;;;;5116865;27;20487;-79
2022/01/09 08:05:38;;;;;;;21.40;3.65;;;5.10;99.90;;;;;;5133795;27;20046;-81
2022/01/09 08:08:05;;;;;;;12.88;2.35;;;5.20;99.90;;;;;;5133686;27;20043;-80
2022/01/09 08:10:31;;;;;;;19.83;3.13;;;5.20;99.90;;;;;;5116539;27;20053;-80
2022/01/09 08:12:57;;;;;;;16.35;3.10;;;5.20;99.90;;;;;;5082778;27;20391;-79
2022/01/09 08:15:22;;;;;;;17.10;2.40;;;5.20;99.90;;;;;;5133288;27;20043;-80
2022/01/09 08:17:49;;;;;;;14.68;2.78;;;5.20;99.90;;;;;;5097883;27;20053;-81
2022/01/09 08:20:16;;;;;;;13.65;2.45;;;5.20;99.90;;;;;;5096192;27;20039;-80
2022/01/09 08:22:43;;;;;;;13.82;1.80;;;5.10;99.90;;;;;;5133050;27;20046;-81
2022/01/09 08:25:13;;;;;;;12.98;2.45;;;5.10;99.90;;;;;;5110530;28;20047;-82
2022/01/09 08:27:39;;;;;;;22.40;2.47;;;5.10;99.90;;;;;;5123131;27;20031;-80
2022/01/09 08:30:07;;;;;;;19.10;4.50;;;5.10;99.90;;;;;;5112003;28;20109;-81
2022/01/09 08:32:33;;;;;;;17.27;3.08;;;5.10;99.90;;;;;;5111806;27;20097;-79
2022/01/09 08:35:00;;;;;;;15.30;2.55;;;5.20;99.90;;;;;;5132849;27;20047;-79
2022/01/09 08:37:26;;;;;;;15.40;2.50;;;5.10;99.90;;;;;;5107024;27;20074;-81
2022/01/09 08:39:51;;;;;;;18.40;2.97;;;5.10;99.90;;;;;;5115358;27;20043;-81
2022/01/09 08:42:17;;;;;;;16.73;2.95;;;5.10;99.90;;;;;;5127138;27;20417;-81
2022/01/09 08:44:43;;;;;;;17.92;2.78;;;5.00;99.90;;;;;;5099589;27;20111;-80
2022/01/09 08:47:10;;;;;;;25.40;3.45;;;5.00;99.90;;;;;;5133441;27;20452;-79
2022/01/09 08:49:36;;;;;;;21.23;3.10;;;5.00;99.90;;;;;;5099080;27;20051;-80
2022/01/09 08:52:02;;;;;;;24.75;3.55;;;5.00;99.90;;;;;;5132909;27;20039;-80
2022/01/09 08:54:29;;;;;;;17.33;3.63;;;5.00;99.90;;;;;;5112203;27;20054;-80
2022/01/09 08:56:54;;;;;;;16.45;3.17;;;5.00;99.90;;;;;;5113230;27;20056;-80
2022/01/09 08:59:20;;;;;;;18.05;3.15;;;5.00;99.90;;;;;;5116016;27;20035;-80
2022/01/09 09:01:46;;;;;;;24.13;4.10;;;5.10;99.90;;;;;;5087312;28;20044;-80
2022/01/09 09:04:13;;;;;;;26.73;4.63;;;5.10;99.90;;;;;;5103861;28;20053;-80
2022/01/09 09:06:39;;;;;;;22.30;2.80;;;5.00;99.90;;;;;;5101442;27;20131;-80
2022/01/09 09:09:05;;;;;;;15.65;2.65;;;5.10;99.90;;;;;;5132818;27;20047;-80
2022/01/09 09:11:31;;;;;;;27.98;3.83;;;5.10;99.90;;;;;;5095638;28;20492;-79
2022/01/09 09:13:58;;;;;;;21.40;3.17;;;5.20;99.90;;;;;;5115304;27;20043;-81
2022/01/09 09:16:24;;;;;;;16.02;2.75;;;5.20;99.90;;;;;;5115709;27;20047;-81
2022/01/09 09:18:50;;;;;;;24.80;3.17;;;5.20;99.90;;;;;;5098929;28;20511;-81
2022/01/09 09:21:17;;;;;;;24.55;3.03;;;5.30;99.90;;;;;;5098729;28;20086;-84
2022/01/09 09:23:43;;;;;;;13.80;2.97;;;5.30;99.90;;;;;;5132763;28;20053;-79
2022/01/09 09:26:09;;;;;;;22.05;2.83;;;5.40;99.90;;;;;;5132714;28;20118;-82
2022/01/09 09:28:36;;;;;;;20.90;3.45;;;5.40;99.90;;;;;;5099131;28;20043;-81
2022/01/09 09:31:03;;;;;;;27.65;3.95;;;5.50;99.90;;;;;;5099164;28;20051;-81
2022/01/09 09:33:28;;;;;;;13.48;2.75;;;5.60;99.90;;;;;;5132807;28;20103;-81
2022/01/09 09:35:56;;;;;;;17.77;3.25;;;5.70;99.90;;;;;;5115730;28;20860;-80
2022/01/09 09:38:22;;;;;;;15.32;2.60;;;5.70;99.90;;;;;;5115506;28;20047;-80
2022/01/09 09:40:47;;;;;;;18.83;2.90;;;5.70;99.90;;;;;;5115116;28;20043;-83
2022/01/09 09:43:13;;;;;;;17.45;2.22;;;5.70;99.90;;;;;;5094683;28;20120;-79
2022/01/09 09:45:39;;;;;;;12.23;2.05;;;5.70;99.90;;;;;;5095502;28;20060;-81
2022/01/09 09:48:05;;;;;;;20.23;2.78;;;5.70;99.90;;;;;;5062204;28;20077;-80
2022/01/09 09:50:30;;;;;;;13.85;2.13;;;5.70;99.90;;;;;;5078412;28;20127;-80
2022/01/09 09:52:58;;;;;;;14.05;2.65;;;5.60;99.90;;;;;;5095444;28;20050;-80
2022/01/09 09:55:24;;;;;;;12.15;1.80;;;5.60;99.90;;;;;;5095020;28;20400;-80
2022/01/09 09:57:50;;;;;;;21.25;2.47;;;5.60;99.90;;;;;;5105324;27;20058;-78
2022/01/09 10:00:18;;;;;;;12.85;2.22;;;5.60;99.90;;;;;;5119288;27;20047;-79
2022/01/09 10:02:50;;;;;;;21.08;2.95;;;5.60;99.90;;;;;;5119393;27;20084;-78
2022/01/09 10:05:18;;;;;;;22.58;2.53;;;5.60;99.90;;;;;;5136401;27;20043;-81
2022/01/09 10:07:45;;;;;;;18.30;2.60;;;5.60;99.90;;;;;;5119382;27;20055;-79
2022/01/09 10:10:16;;;;;;;17.40;3.83;;;5.60;99.90;;;;;;5119665;27;20130;-80
2022/01/09 10:12:44;;;;;;;13.65;2.63;;;5.60;99.90;;;;;;5118943;27;20054;-78
2022/01/09 10:15:18;;;;;;;17.52;2.85;;;5.60;99.90;;;;;;5136229;27;20498;-79
2022/01/09 10:17:50;;;;;;;24.27;2.90;;;5.70;99.90;;;;;;5098598;28;20047;-84
2022/01/09 10:20:21;;;;;;;17.08;2.67;;;5.70;99.90;;;;;;5098673;28;20066;-79
2022/01/09 10:22:53;;;;;;;18.45;2.33;;;5.80;99.90;;;;;;5136005;27;20054;-81
2022/01/09 10:25:21;;;;;;;15.77;2.45;;;5.80;99.90;;;;;;5136047;27;20051;-81
2022/01/09 10:28:13;;;;;;;20.80;3.65;;;5.90;99.90;;;;;;5135435;27;20085;-81
2022/01/09 10:30:52;;;;;;;17.17;2.38;;;5.90;99.90;;;;;;5104520;27;20470;-81
2022/01/09 10:33:25;;;;;;;16.00;3.08;;;6.00;99.90;;;;;;5097406;28;20048;-82
2022/01/09 10:35:51;;;;;;;24.80;3.22;;;6.00;99.90;;;;;;5098029;28;20048;-81
2022/01/09 10:38:23;;;;;;;19.70;2.53;;;6.00;99.90;;;;;;5125148;27;20131;-80
2022/01/09 10:40:56;;;;;;;20.70;2.90;;;6.10;99.90;;;;;;5134991;27;20044;-79
2022/01/09 10:43:41;;;;;;;18.60;3.00;;;6.20;99.90;;;;;;5117543;27;20116;-79
2022/01/09 10:46:09;;;;;;;18.38;3.40;;;6.20;99.90;;;;;;5135939;27;20537;-80
2022/01/09 10:48:41;;;;;;;25.83;3.63;;;6.20;99.90;;;;;;5135108;27;20039;-80
2022/01/09 10:51:10;;;;;;;20.60;3.08;;;6.20;99.90;;;;;;5135437;27;20458;-81
2022/01/09 10:53:38;;;;;;;20.05;3.47;;;6.20;99.90;;;;;;5133994;27;20449;-81
2022/01/09 10:56:19;;;;;;;22.08;3.05;;;6.20;99.90;;;;;;5117424;27;20113;-82
2022/01/09 10:58:56;;;;;;;24.65;3.33;;;6.20;99.90;;;;;;5116536;27;20043;-81
2022/01/09 11:01:30;;;;;;;21.35;3.13;;;6.30;99.90;;;;;;5118238;27;20089;-80
2022/01/09 11:04:01;;;;;;;21.40;3.10;;;6.30;99.90;;;;;;5102883;27;20036;-80
2022/01/09 11:06:32;;;;;;;17.40;3.15;;;6.40;99.90;;;;;;5117944;27;20039;-87
2022/01/09 11:09:00;;;;;;;20.73;3.00;;;6.40;99.90;;;;;;5135412;27;20039;-85
2022/01/09 11:13:54;;;;;;;20.65;3.42;;;6.70;99.90;;;;;;5124795;27;20048;-80
2022/01/09 11:16:32;;;;;;;22.08;3.03;;;7.00;99.90;;;;;;5110707;27;20047;-81
2022/01/09 11:19:09;;;;;;;18.00;3.00;;;7.30;99.90;;;;;;5116600;27;20047;-80
2022/01/09 11:21:39;;;;;;;16.38;2.67;;;7.60;99.90;;;;;;5134406;27;20051;-80
2022/01/09 11:24:33;;;;;;;15.20;2.67;;;8.00;99.90;;;;;;5134096;27;20108;-82
2022/01/09 11:27:17;;;;;;;21.60;3.45;;;8.20;99.90;;;;;;5117691;27;20047;-81
2022/01/09 11:30:05;;;;;;;20.35;3.28;;;8.10;99.90;;;;;;5111318;27;20043;-81
2022/01/09 11:33:02;;;;;;;13.25;2.90;;;8.20;99.90;;;;;;5096889;28;20050;-83
2022/01/09 11:35:58;;;;;;;14.65;3.33;;;8.40;99.90;;;;;;5132421;27;20122;-81
2022/01/09 11:38:45;;;;;;;13.27;2.77;;;8.50;99.90;;;;;;5134240;27;20094;-80
2022/01/09 11:41:16;;;;;;;15.32;2.53;;;8.60;99.90;;;;;;5116336;27;20304;-81
2022/01/09 11:44:09;;;;;;;20.75;3.28;;;8.70;99.90;;;;;;5133261;27;20593;-81
2022/01/09 11:46:54;;;;;;;18.30;2.67;;;8.70;99.90;;;;;;5096494;27;20487;-87
2022/01/09 11:49:21;;;;;;;14.40;2.28;;;8.70;99.90;;;;;;5134283;27;20047;-83
2022/01/09 11:51:54;;;;;;;12.98;2.40;;;8.80;99.90;;;;;;5075924;28;20071;-81
2022/01/09 11:54:22;;;;;;;17.92;2.45;;;8.90;99.90;;;;;;5128723;27;20642;-81
2022/01/09 11:56:52;;;;;;;16.90;2.75;;;8.80;99.90;;;;;;5098391;27;20453;-81
2022/01/09 11:59:19;;;;;;;21.25;3.47;;;8.60;99.90;;;;;;5117337;27;20046;-83
2022/01/09 12:01:46;;;;;;;20.60;4.55;;;8.40;99.90;;;;;;5133900;27;20051;-80
2022/01/09 12:04:31;;;;;;;15.30;2.95;;;8.20;99.90;;;;;;5095499;28;20105;-80
2022/01/09 12:07:03;;;;;;;13.43;2.38;;;7.90;99.90;;;;;;5115466;27;20065;-80
2022/01/09 12:09:37;;;;;;;22.52;3.75;;;7.80;99.90;;;;;;5116642;27;20042;-80
2022/01/09 12:12:16;;;;;;;19.40;3.13;;;7.90;99.90;;;;;;5116189;27;20043;-79
2022/01/09 12:14:41;;;;;;;18.33;2.92;;;7.80;99.90;;;;;;5096562;28;20039;-81
2022/01/09 12:17:26;;;;;;;15.65;2.40;;;7.70;99.90;;;;;;5108789;28;20051;-79
2022/01/09 12:20:13;;;;;;;19.20;3.05;;;7.80;99.90;;;;;;5115781;27;20096;-80
2022/01/09 12:22:51;;;;;;;19.95;2.80;;;7.70;99.90;;;;;;5116160;27;20083;-80
2022/01/09 12:25:23;;;;;;;19.88;3.33;;;7.60;99.90;;;;;;5130255;27;20081;-79
2022/01/09 12:28:06;;;;;;;20.42;2.65;;;7.50;99.90;;;;;;5105817;28;20049;-80
2022/01/09 12:30:33;;;;;;;14.88;3.28;;;7.50;99.90;;;;;;5130371;27;20054;-88
2022/01/09 12:33:00;;;;;;;17.58;2.65;;;7.50;99.90;;;;;;5104488;28;20051;-80
2022/01/09 12:35:26;;;;;;;18.95;3.58;;;7.60;99.90;;;;;;5113255;28;20097;-80
2022/01/09 12:37:57;;;;;;;17.42;2.40;;;7.40;99.90;;;;;;5121316;27;20051;-80
2022/01/09 12:40:25;;;;;;;15.82;2.53;;;7.20;99.90;;;;;;5129144;27;20121;-83
2022/01/09 12:42:53;;;;;;;14.93;2.80;;;7.00;99.90;;;;;;5098891;28;20411;-82
2022/01/09 12:45:25;;;;;;;11.68;2.17;;;6.90;99.90;;;;;;5101391;27;20130;-81
2022/01/09 12:47:52;;;;;;;17.48;2.45;;;6.70;99.90;;;;;;5072841;28;20097;-79
2022/01/09 12:50:26;;;;;;;14.57;2.13;;;6.50;99.90;;;;;;5125148;27;20122;-79
2022/01/09 12:53:10;;;;;;;11.27;1.98;;;6.40;99.90;;;;;;5107486;27;20051;-80